This is the latest recevied weather packets stored in our database for station/object DL4LAM-15. If no packets are shown the sender has not sent any weather packets the latest 10 day(s).
| Time | Temp. | Humidity | Pressure | Rain* | Wind** | Luminosity | Snow |
|---|---|---|---|---|---|---|---|
| 1777905318 | 22.78° C | 55% | 1011.3 hPa | 0 mm | - | - | - |
| 1777905018 | 22.78° C | 55% | 1011.3 hPa | 0 mm | - | - | - |
| 1777903818 | 22.78° C | 54% | 1011.3 hPa | 0 mm | - | - | - |
| 1777902618 | 22.78° C | 54% | 1011.4 hPa | 0 mm | - | - | - |
| 1777900218 | 22.78° C | 59% | 1011.8 hPa | 0 mm | - | - | - |
| 1777899318 | 22.22° C | 57% | 1011.8 hPa | 0 mm | - | - | - |
| 1777898418 | 22.22° C | 58% | 1011.8 hPa | 0 mm | - | - | - |
| 1777897219 | 22.22° C | 58% | 1011.9 hPa | 0 mm | - | - | - |
| 1777896918 | 22.22° C | 58% | 1011.9 hPa | 0 mm | - | - | - |
| 1777895418 | 22.78° C | 56% | 1012.1 hPa | 0 mm | - | - | - |
| 1777894818 | 22.78° C | 56% | 1012 hPa | 0 mm | - | - | - |
| 1777887018 | 20.56° C | 67% | 1012.6 hPa | 0 mm | - | - | - |
| 1777886417 | 20.56° C | 68% | 1012.6 hPa | 0 mm | - | - | - |
| 1777885518 | 20.56° C | 64% | 1012.7 hPa | 0 mm | - | - | - |
| 1777884917 | 21.11° C | 64% | 1012.7 hPa | 0 mm | - | - | - |
| 1777884018 | 21.11° C | 64% | 1012.7 hPa | 0 mm | - | - | - |
| 1777881617 | 21.11° C | 67% | 1012.5 hPa | 0 mm | - | - | - |
| 1777879817 | 19.44° C | 71% | 1012.4 hPa | 0 mm | - | - | - |
| 1777879517 | 19.44° C | 71% | 1012.4 hPa | 0 mm | - | - | - |
| 1777878317 | 20° C | 67% | 1012.2 hPa | 0 mm | - | - | - |
| 1777877417 | 20° C | 69% | 1012.1 hPa | 0 mm | - | - | - |
| 1777877137 | 20° C | 69% | 1012 hPa | 0 mm | - | - | - |
| 1777876517 | 19.44° C | 72% | 1011.9 hPa | 0 mm | - | - | - |
| 1777873218 | 16.67° C | 77% | 1011.6 hPa | 0 mm | - | - | - |
| 1777870517 | 16.11° C | 76% | 1011.4 hPa | 0 mm | - | - | - |
* Rain latest hour (hover to see other rain measurements)
** Current wind speed in m/s (hover to see current wind gust speed)